Buckhaven, United Kingdom
Current Conditions -  °F | °C
As of 5:50 AM on Wednesday 28 Jan 2015 (Local Time) from EGQL Reporting Station
Moderate Rain Moderate Rain  
Wind Chill: 37°   Ceiling: 2900
Heat Index: 45°   Visibility: 6mi
Dew Point: 43°   Wind: 20mph
Humidity: 93%   Direction: 250°WSW
Pressure: 29.18"   Gusts: NA
Location:  56.17°N, 3.03°W
Report Text: EGQL 280550Z 25017KT 9999 RA BKN029 07/06 Q0988 BLU
Loading
Personal Weather Stations






























Interactive Weather Map New forecast layout! Learn more

10-Day Weather Forecast

Advertisements
Track Severe Weather on mobile